sensor_id;sensor_type;location;lat;lon;timestamp;pressure;altitude;pressure_sealevel;temperature;humidity
77171;BME280;66144;50.020;14.422;2023-04-27T00:01:13;99137.09;;;6.47;62.86
77171;BME280;66144;50.020;14.422;2023-04-27T00:03:40;99141.44;;;6.53;63.14
77171;BME280;66144;50.020;14.422;2023-04-27T00:06:07;99137.84;;;6.54;62.82
77171;BME280;66144;50.020;14.422;2023-04-27T00:08:33;99140.59;;;6.59;63.89
77171;BME280;66144;50.020;14.422;2023-04-27T00:10:58;99139.56;;;6.60;63.78
77171;BME280;66144;50.020;14.422;2023-04-27T00:13:24;99137.56;;;6.62;64.73
77171;BME280;66144;50.020;14.422;2023-04-27T00:15:50;99138.94;;;6.65;63.60
77171;BME280;66144;50.020;14.422;2023-04-27T00:18:15;99138.94;;;6.65;61.90
77171;BME280;66144;50.020;14.422;2023-04-27T00:20:41;99137.38;;;6.64;61.60
77171;BME280;66144;50.020;14.422;2023-04-27T00:23:07;99134.59;;;6.58;61.74
77171;BME280;66144;50.020;14.422;2023-04-27T00:25:32;99135.97;;;6.61;61.82
77171;BME280;66144;50.020;14.422;2023-04-27T00:27:57;99131.97;;;6.65;60.92
77171;BME280;66144;50.020;14.422;2023-04-27T00:30:23;99132.16;;;6.64;61.60
77171;BME280;66144;50.020;14.422;2023-04-27T00:32:48;99131.59;;;6.62;61.42
77171;BME280;66144;50.020;14.422;2023-04-27T00:35:13;99127.41;;;6.61;61.29
77171;BME280;66144;50.020;14.422;2023-04-27T00:37:39;99130.00;;;6.61;60.89
77171;BME280;66144;50.020;14.422;2023-04-27T00:40:05;99129.38;;;6.65;61.26
77171;BME280;66144;50.020;14.422;2023-04-27T00:42:34;99127.78;;;6.64;60.20
77171;BME280;66144;50.020;14.422;2023-04-27T00:44:59;99130.59;;;6.63;60.11
77171;BME280;66144;50.020;14.422;2023-04-27T00:47:25;99132.56;;;6.67;61.31
77171;BME280;66144;50.020;14.422;2023-04-27T00:49:51;99132.34;;;6.69;60.88
77171;BME280;66144;50.020;14.422;2023-04-27T00:52:17;99130.38;;;6.64;60.28
77171;BME280;66144;50.020;14.422;2023-04-27T00:54:42;99132.59;;;6.61;61.34
77171;BME280;66144;50.020;14.422;2023-04-27T00:57:08;99136.19;;;6.59;62.00
77171;BME280;66144;50.020;14.422;2023-04-27T00:59:34;99133.00;;;6.57;62.58
77171;BME280;66144;50.020;14.422;2023-04-27T01:02:00;99129.47;;;6.52;62.28
77171;BME280;66144;50.020;14.422;2023-04-27T01:04:25;99134.13;;;6.43;62.54
77171;BME280;66144;50.020;14.422;2023-04-27T01:06:53;99131.00;;;6.35;63.09
77171;BME280;66144;50.020;14.422;2023-04-27T01:09:18;99127.63;;;6.28;63.67
77171;BME280;66144;50.020;14.422;2023-04-27T01:11:45;99129.31;;;6.15;63.52
77171;BME280;66144;50.020;14.422;2023-04-27T01:14:10;99126.53;;;6.10;63.70
77171;BME280;66144;50.020;14.422;2023-04-27T01:16:36;99125.56;;;6.05;63.43
77171;BME280;66144;50.020;14.422;2023-04-27T01:19:03;99127.38;;;5.98;64.26
77171;BME280;66144;50.020;14.422;2023-04-27T01:21:28;99128.03;;;5.93;64.46
77171;BME280;66144;50.020;14.422;2023-04-27T01:23:54;99131.41;;;5.87;64.49
77171;BME280;66144;50.020;14.422;2023-04-27T01:26:19;99130.22;;;5.83;64.46
77171;BME280;66144;50.020;14.422;2023-04-27T01:28:45;99135.06;;;5.73;65.16
77171;BME280;66144;50.020;14.422;2023-04-27T01:31:11;99133.28;;;5.67;65.36
77171;BME280;66144;50.020;14.422;2023-04-27T01:33:37;99131.50;;;5.61;65.36
77171;BME280;66144;50.020;14.422;2023-04-27T01:36:03;99130.75;;;5.53;66.30
77171;BME280;66144;50.020;14.422;2023-04-27T01:38:28;99126.56;;;5.52;66.03
77171;BME280;66144;50.020;14.422;2023-04-27T01:40:54;99125.16;;;5.50;66.40
77171;BME280;66144;50.020;14.422;2023-04-27T01:43:25;99135.31;;;5.51;65.86
77171;BME280;66144;50.020;14.422;2023-04-27T01:45:51;99132.75;;;5.51;66.64
77171;BME280;66144;50.020;14.422;2023-04-27T01:48:16;99137.72;;;5.53;66.83
77171;BME280;66144;50.020;14.422;2023-04-27T01:50:42;99132.34;;;5.48;67.03
77171;BME280;66144;50.020;14.422;2023-04-27T01:53:07;99139.91;;;5.49;66.20
77171;BME280;66144;50.020;14.422;2023-04-27T01:55:32;99139.50;;;5.52;66.42
77171;BME280;66144;50.020;14.422;2023-04-27T01:57:58;99143.88;;;5.52;66.73
77171;BME280;66144;50.020;14.422;2023-04-27T02:00:23;99138.50;;;5.53;66.05
77171;BME280;66144;50.020;14.422;2023-04-27T02:02:49;99147.09;;;5.47;67.03
77171;BME280;66144;50.020;14.422;2023-04-27T02:05:22;99146.88;;;5.42;67.03
77171;BME280;66144;50.020;14.422;2023-04-27T02:07:47;99151.28;;;5.42;68.11
77171;BME280;66144;50.020;14.422;2023-04-27T02:10:13;99146.88;;;5.42;67.30
77171;BME280;66144;50.020;14.422;2023-04-27T02:12:38;99146.88;;;5.42;67.62
77171;BME280;66144;50.020;14.422;2023-04-27T02:15:04;99148.47;;;5.43;68.07
77171;BME280;66144;50.020;14.422;2023-04-27T02:17:33;99150.06;;;5.44;67.30
77171;BME280;66144;50.020;14.422;2023-04-27T02:19:58;99157.25;;;5.42;68.46
77171;BME280;66144;50.020;14.422;2023-04-27T02:22:23;99150.47;;;5.48;66.30
77171;BME280;66144;50.020;14.422;2023-04-27T02:24:49;99147.88;;;5.48;66.84
77171;BME280;66144;50.020;14.422;2023-04-27T02:27:14;99149.47;;;5.49;65.55
77171;BME280;66144;50.020;14.422;2023-04-27T02:29:39;99148.88;;;5.53;66.88
77171;BME280;66144;50.020;14.422;2023-04-27T02:32:05;99153.84;;;5.55;67.71
77171;BME280;66144;50.020;14.422;2023-04-27T02:34:31;99157.25;;;5.55;66.89
77171;BME280;66144;50.020;14.422;2023-04-27T02:36:56;99156.81;;;5.59;66.59
77171;BME280;66144;50.020;14.422;2023-04-27T02:39:21;99155.81;;;5.60;66.73
77171;BME280;66144;50.020;14.422;2023-04-27T02:41:47;99155.59;;;5.61;67.29
77171;BME280;66144;50.020;14.422;2023-04-27T02:44:12;99155.41;;;5.63;66.26
77171;BME280;66144;50.020;14.422;2023-04-27T02:46:37;99164.97;;;5.62;66.67
77171;BME280;66144;50.020;14.422;2023-04-27T02:49:03;99155.41;;;5.63;66.19
77171;BME280;66144;50.020;14.422;2023-04-27T02:51:28;99153.81;;;5.62;65.67
77171;BME280;66144;50.020;14.422;2023-04-27T02:53:53;99165.59;;;5.58;64.80
77171;BME280;66144;50.020;14.422;2023-04-27T02:56:19;99160.00;;;5.61;64.87
77171;BME280;66144;50.020;14.422;2023-04-27T02:58:44;99159.25;;;5.53;64.38
77171;BME280;66144;50.020;14.422;2023-04-27T03:01:12;99164.19;;;5.62;64.00
77171;BME280;66144;50.020;14.422;2023-04-27T03:03:37;99159.41;;;5.59;64.06
77171;BME280;66144;50.020;14.422;2023-04-27T03:06:03;99166.00;;;5.48;64.53
77171;BME280;66144;50.020;14.422;2023-04-27T03:08:28;99153.88;;;5.48;64.10
77171;BME280;66144;50.020;14.422;2023-04-27T03:10:53;99161.81;;;5.53;64.60
77171;BME280;66144;50.020;14.422;2023-04-27T03:13:19;99157.84;;;5.58;65.58
77171;BME280;66144;50.020;14.422;2023-04-27T03:15:44;99165.19;;;5.61;65.34
77171;BME280;66144;50.020;14.422;2023-04-27T03:18:09;99161.44;;;5.57;65.99
77171;BME280;66144;50.020;14.422;2023-04-27T03:20:35;99164.78;;;5.64;65.81
77171;BME280;66144;50.020;14.422;2023-04-27T03:23:00;99166.19;;;5.60;65.80
77171;BME280;66144;50.020;14.422;2023-04-27T03:25:26;99165.78;;;5.63;65.65
77171;BME280;66144;50.020;14.422;2023-04-27T03:27:51;99167.75;;;5.61;66.24
77171;BME280;66144;50.020;14.422;2023-04-27T03:30:16;99176.53;;;5.60;65.71
77171;BME280;66144;50.020;14.422;2023-04-27T03:32:42;99178.13;;;5.61;66.26
77171;BME280;66144;50.020;14.422;2023-04-27T03:35:10;99172.59;;;5.57;66.56
77171;BME280;66144;50.020;14.422;2023-04-27T03:37:36;99175.75;;;5.59;66.31
77171;BME280;66144;50.020;14.422;2023-04-27T03:40:01;99178.38;;;5.52;66.52
77171;BME280;66144;50.020;14.422;2023-04-27T03:42:26;99178.97;;;5.54;65.85
77171;BME280;66144;50.020;14.422;2023-04-27T03:44:53;99180.56;;;5.55;65.28
77171;BME280;66144;50.020;14.422;2023-04-27T03:47:18;99180.75;;;5.54;64.71
77171;BME280;66144;50.020;14.422;2023-04-27T03:49:43;99185.34;;;5.52;64.62
77171;BME280;66144;50.020;14.422;2023-04-27T03:52:09;99185.53;;;5.50;65.02
77171;BME280;66144;50.020;14.422;2023-04-27T03:54:34;99192.91;;;5.47;64.40
77171;BME280;66144;50.020;14.422;2023-04-27T03:57:00;99191.34;;;5.26;64.87
77171;BME280;66144;50.020;14.422;2023-04-27T03:59:28;99184.78;;;5.37;64.99
77171;BME280;66144;50.020;14.422;2023-04-27T04:01:54;99188.13;;;5.44;65.06
77171;BME280;66144;50.020;14.422;2023-04-27T04:04:20;99192.50;;;5.50;64.76
77171;BME280;66144;50.020;14.422;2023-04-27T04:06:45;99201.69;;;5.52;64.07
77171;BME280;66144;50.020;14.422;2023-04-27T04:09:11;99196.50;;;5.46;64.68
77171;BME280;66144;50.020;14.422;2023-04-27T04:11:36;99200.31;;;5.37;65.00
77171;BME280;66144;50.020;14.422;2023-04-27T04:14:02;99203.28;;;5.40;65.04
77171;BME280;66144;50.020;14.422;2023-04-27T04:16:27;99203.28;;;5.40;65.15
77171;BME280;66144;50.020;14.422;2023-04-27T04:18:52;99208.06;;;5.43;64.77
77171;BME280;66144;50.020;14.422;2023-04-27T04:21:18;99210.66;;;5.43;64.98
77171;BME280;66144;50.020;14.422;2023-04-27T04:23:43;99209.25;;;5.47;65.07
77171;BME280;66144;50.020;14.422;2023-04-27T04:26:08;99213.44;;;5.48;65.26
77171;BME280;66144;50.020;14.422;2023-04-27T04:28:35;99220.81;;;5.51;65.00
77171;BME280;66144;50.020;14.422;2023-04-27T04:31:01;99215.03;;;5.56;64.77
77171;BME280;66144;50.020;14.422;2023-04-27T04:33:26;99218.00;;;5.60;64.14
77171;BME280;66144;50.020;14.422;2023-04-27T04:35:52;99216.00;;;5.62;64.13
77171;BME280;66144;50.020;14.422;2023-04-27T04:38:17;99225.16;;;5.64;65.01
77171;BME280;66144;50.020;14.422;2023-04-27T04:40:43;99229.34;;;5.72;65.19
77171;BME280;66144;50.020;14.422;2023-04-27T04:43:08;99228.91;;;5.81;64.76
77171;BME280;66144;50.020;14.422;2023-04-27T04:45:34;99229.09;;;5.86;64.46
77171;BME280;66144;50.020;14.422;2023-04-27T04:47:59;99231.72;;;5.93;64.22
77171;BME280;66144;50.020;14.422;2023-04-27T04:50:28;99239.91;;;5.90;64.13
77171;BME280;66144;50.020;14.422;2023-04-27T04:52:54;99238.25;;;6.09;63.96
77171;BME280;66144;50.020;14.422;2023-04-27T04:55:19;99234.25;;;6.13;63.97
77171;BME280;66144;50.020;14.422;2023-04-27T04:57:45;99246.34;;;6.26;63.17
77171;BME280;66144;50.020;14.422;2023-04-27T05:00:11;99238.97;;;6.29;62.86
77171;BME280;66144;50.020;14.422;2023-04-27T05:02:37;99242.09;;;6.38;62.81
77171;BME280;66144;50.020;14.422;2023-04-27T05:05:03;99247.06;;;6.46;62.67
77171;BME280;66144;50.020;14.422;2023-04-27T05:07:29;99244.44;;;6.52;62.49
77171;BME280;66144;50.020;14.422;2023-04-27T05:09:54;99247.78;;;6.59;62.77
77171;BME280;66144;50.020;14.422;2023-04-27T05:12:19;99246.16;;;6.65;62.20
77171;BME280;66144;50.020;14.422;2023-04-27T05:14:45;99247.75;;;6.66;62.24
77171;BME280;66144;50.020;14.422;2023-04-27T05:17:10;99242.22;;;6.87;61.69
77171;BME280;66144;50.020;14.422;2023-04-27T05:19:36;99245.00;;;6.92;61.24
77171;BME280;66144;50.020;14.422;2023-04-27T05:22:02;99249.03;;;7.13;60.79
77171;BME280;66144;50.020;14.422;2023-04-27T05:24:27;99244.00;;;7.43;59.78
77171;BME280;66144;50.020;14.422;2023-04-27T05:26:52;99242.56;;;7.47;60.20
77171;BME280;66144;50.020;14.422;2023-04-27T05:29:18;99245.56;;;7.69;58.87
77171;BME280;66144;50.020;14.422;2023-04-27T05:31:44;99244.47;;;7.95;58.02
77171;BME280;66144;50.020;14.422;2023-04-27T05:34:09;99238.69;;;8.11;56.81
77171;BME280;66144;50.020;14.422;2023-04-27T05:36:35;99242.16;;;8.23;56.47
77171;BME280;66144;50.020;14.422;2023-04-27T05:39:01;99240.25;;;8.49;56.62
77171;BME280;66144;50.020;14.422;2023-04-27T05:41:28;99237.44;;;8.80;55.40
77171;BME280;66144;50.020;14.422;2023-04-27T05:43:54;99232.28;;;9.04;54.36
77171;BME280;66144;50.020;14.422;2023-04-27T05:46:19;99230.91;;;9.24;53.42
77171;BME280;66144;50.020;14.422;2023-04-27T05:48:45;99236.03;;;9.31;52.92
77171;BME280;66144;50.020;14.422;2023-04-27T05:51:11;99238.19;;;9.34;53.21
77171;BME280;66144;50.020;14.422;2023-04-27T05:53:36;99238.31;;;9.39;53.12
77171;BME280;66144;50.020;14.422;2023-04-27T05:56:01;99242.03;;;9.43;53.11
77171;BME280;66144;50.020;14.422;2023-04-27T05:58:28;99239.53;;;9.72;52.07
77171;BME280;66144;50.020;14.422;2023-04-27T06:00:53;99239.41;;;9.90;51.04
77171;BME280;66144;50.020;14.422;2023-04-27T06:03:19;99243.50;;;9.97;50.76
77171;BME280;66144;50.020;14.422;2023-04-27T06:05:45;99236.50;;;10.26;49.58
77171;BME280;66144;50.020;14.422;2023-04-27T06:08:10;99231.16;;;10.33;49.11
77171;BME280;66144;50.020;14.422;2023-04-27T06:10:37;99235.19;;;10.41;47.79
77171;BME280;66144;50.020;14.422;2023-04-27T06:13:02;99232.78;;;10.51;48.63
77171;BME280;66144;50.020;14.422;2023-04-27T06:15:28;99240.53;;;10.46;49.34
77171;BME280;66144;50.020;14.422;2023-04-27T06:17:53;99237.75;;;10.35;50.14
77171;BME280;66144;50.020;14.422;2023-04-27T06:20:18;99240.25;;;10.30;50.58
77171;BME280;66144;50.020;14.422;2023-04-27T06:22:45;99233.16;;;10.43;50.33
77171;BME280;66144;50.020;14.422;2023-04-27T06:25:11;99229.00;;;10.58;49.43
77171;BME280;66144;50.020;14.422;2023-04-27T06:27:36;99236.38;;;10.61;49.09
77171;BME280;66144;50.020;14.422;2023-04-27T06:30:02;99231.72;;;10.80;48.09
77171;BME280;66144;50.020;14.422;2023-04-27T06:32:27;99236.44;;;10.95;47.58
77171;BME280;66144;50.020;14.422;2023-04-27T06:34:52;99236.59;;;10.88;46.80
77171;BME280;66144;50.020;14.422;2023-04-27T06:37:18;99237.63;;;11.21;47.79
77171;BME280;66144;50.020;14.422;2023-04-27T06:39:43;99243.88;;;11.36;47.42
77171;BME280;66144;50.020;14.422;2023-04-27T06:42:09;99238.41;;;11.38;46.93
77171;BME280;66144;50.020;14.422;2023-04-27T06:44:34;99239.38;;;11.32;47.01
77171;BME280;66144;50.020;14.422;2023-04-27T06:46:59;99236.56;;;11.38;46.58
77171;BME280;66144;50.020;14.422;2023-04-27T06:49:25;99233.16;;;11.55;45.28
77171;BME280;66144;50.020;14.422;2023-04-27T06:51:50;99227.69;;;11.95;44.30
77171;BME280;66144;50.020;14.422;2023-04-27T06:54:16;99234.09;;;11.82;43.77
77171;BME280;66144;50.020;14.422;2023-04-27T06:56:41;99236.25;;;12.34;44.23
77171;BME280;66144;50.020;14.422;2023-04-27T06:59:07;99232.81;;;12.55;43.76
77171;BME280;66144;50.020;14.422;2023-04-27T07:01:33;99230.81;;;12.94;43.50
77171;BME280;66144;50.020;14.422;2023-04-27T07:03:58;99235.72;;;13.49;42.63
77171;BME280;66144;50.020;14.422;2023-04-27T07:06:24;99232.63;;;14.15;41.14
77171;BME280;66144;50.020;14.422;2023-04-27T07:08:50;99222.25;;;14.56;39.39
77171;BME280;66144;50.020;14.422;2023-04-27T07:11:15;99219.66;;;14.76;38.23
77171;BME280;66144;50.020;14.422;2023-04-27T07:13:41;99221.78;;;14.94;38.05
77171;BME280;66144;50.020;14.422;2023-04-27T07:16:07;99218.59;;;15.33;36.32
77171;BME280;66144;50.020;14.422;2023-04-27T07:18:32;99222.09;;;16.03;34.08
77171;BME280;66144;50.020;14.422;2023-04-27T07:20:57;99220.97;;;16.19;34.58
77171;BME280;66144;50.020;14.422;2023-04-27T07:23:23;99235.53;;;16.55;34.68
77171;BME280;66144;50.020;14.422;2023-04-27T07:25:48;99231.13;;;16.90;32.36
77171;BME280;66144;50.020;14.422;2023-04-27T07:28:14;99228.44;;;17.53;31.00
77171;BME280;66144;50.020;14.422;2023-04-27T07:30:40;99223.63;;;17.60;30.60
77171;BME280;66144;50.020;14.422;2023-04-27T07:33:06;99232.78;;;16.81;29.92
77171;BME280;66144;50.020;14.422;2023-04-27T07:35:32;99230.41;;;16.35;30.99
77171;BME280;66144;50.020;14.422;2023-04-27T07:37:59;99232.28;;;16.30;32.49
77171;BME280;66144;50.020;14.422;2023-04-27T07:40:26;99241.44;;;16.42;32.10
77171;BME280;66144;50.020;14.422;2023-04-27T07:42:51;99228.03;;;16.78;32.04
77171;BME280;66144;50.020;14.422;2023-04-27T07:45:17;99231.81;;;16.67;32.12
77171;BME280;66144;50.020;14.422;2023-04-27T07:47:42;99233.25;;;16.44;33.76
77171;BME280;66144;50.020;14.422;2023-04-27T07:50:09;99230.50;;;16.59;33.40
77171;BME280;66144;50.020;14.422;2023-04-27T07:52:35;99229.78;;;16.53;33.57
77171;BME280;66144;50.020;14.422;2023-04-27T07:55:01;99226.56;;;16.56;32.41
77171;BME280;66144;50.020;14.422;2023-04-27T07:57:27;99223.28;;;16.80;32.05
77171;BME280;66144;50.020;14.422;2023-04-27T07:59:52;99228.81;;;16.78;31.43
77171;BME280;66144;50.020;14.422;2023-04-27T08:02:18;99230.25;;;16.61;31.53
77171;BME280;66144;50.020;14.422;2023-04-27T08:04:43;99225.88;;;17.19;31.69
77171;BME280;66144;50.020;14.422;2023-04-27T08:07:08;99223.66;;;17.31;29.67
77171;BME280;66144;50.020;14.422;2023-04-27T08:09:34;99226.00;;;17.61;29.83
77171;BME280;66144;50.020;14.422;2023-04-27T08:11:59;99213.78;;;18.51;29.24
77171;BME280;66144;50.020;14.422;2023-04-27T08:14:27;99224.91;;;18.72;28.48
77171;BME280;66144;50.020;14.422;2023-04-27T08:16:52;99216.13;;;19.69;27.10
77171;BME280;66144;50.020;14.422;2023-04-27T08:19:18;99216.44;;;20.44;27.27
77171;BME280;66144;50.020;14.422;2023-04-27T08:21:43;99217.66;;;20.60;26.20
77171;BME280;66144;50.020;14.422;2023-04-27T08:24:09;99212.88;;;21.16;24.93
77171;BME280;66144;50.020;14.422;2023-04-27T08:26:34;99215.00;;;20.60;25.27
77171;BME280;66144;50.020;14.422;2023-04-27T08:29:00;99221.28;;;21.09;26.25
77171;BME280;66144;50.020;14.422;2023-04-27T08:31:26;99219.72;;;20.86;26.01
77171;BME280;66144;50.020;14.422;2023-04-27T08:33:52;99219.72;;;20.14;25.86
77171;BME280;66144;50.020;14.422;2023-04-27T08:36:20;99225.78;;;20.42;26.25
77171;BME280;66144;50.020;14.422;2023-04-27T08:38:49;99221.03;;;20.52;26.60
77171;BME280;66144;50.020;14.422;2023-04-27T08:41:21;99234.50;;;20.42;26.42
77171;BME280;66144;50.020;14.422;2023-04-27T08:43:47;99222.50;;;19.95;24.85
77171;BME280;66144;50.020;14.422;2023-04-27T08:46:21;99224.34;;;19.67;25.56
77171;BME280;66144;50.020;14.422;2023-04-27T08:48:53;99219.09;;;19.35;26.39
77171;BME280;66144;50.020;14.422;2023-04-27T08:51:20;99225.59;;;20.24;25.27
77171;BME280;66144;50.020;14.422;2023-04-27T08:53:51;99219.56;;;19.96;24.94
77171;BME280;66144;50.020;14.422;2023-04-27T08:56:18;99215.81;;;19.70;25.73
77171;BME280;66144;50.020;14.422;2023-04-27T08:58:43;99238.28;;;18.80;26.92
77171;BME280;66144;50.020;14.422;2023-04-27T09:01:09;99232.16;;;17.81;27.08
77171;BME280;66144;50.020;14.422;2023-04-27T09:03:35;99234.38;;;17.92;28.04
77171;BME280;66144;50.020;14.422;2023-04-27T09:06:05;99230.66;;;16.83;28.52
77171;BME280;66144;50.020;14.422;2023-04-27T09:08:44;99239.91;;;16.80;28.68
77171;BME280;66144;50.020;14.422;2023-04-27T09:11:10;99232.25;;;16.79;30.36
77171;BME280;66144;50.020;14.422;2023-04-27T09:13:37;99236.31;;;16.56;29.87
77171;BME280;66144;50.020;14.422;2023-04-27T09:16:03;99233.25;;;16.39;29.54
77171;BME280;66144;50.020;14.422;2023-04-27T09:18:28;99233.09;;;16.25;30.76
77171;BME280;66144;50.020;14.422;2023-04-27T09:20:58;99222.78;;;15.49;29.30
77171;BME280;66144;50.020;14.422;2023-04-27T09:23:34;99217.78;;;15.52;29.32
77171;BME280;66144;50.020;14.422;2023-04-27T09:26:17;99224.88;;;15.72;29.93
77171;BME280;66144;50.020;14.422;2023-04-27T09:28:47;99223.03;;;15.63;29.22
77171;BME280;66144;50.020;14.422;2023-04-27T09:31:12;99224.09;;;15.51;29.90
77171;BME280;66144;50.020;14.422;2023-04-27T09:33:38;99222.72;;;15.79;29.72
77171;BME280;66144;50.020;14.422;2023-04-27T09:36:06;99218.84;;;16.26;29.89
77171;BME280;66144;50.020;14.422;2023-04-27T09:38:32;99225.69;;;16.32;29.97
77171;BME280;66144;50.020;14.422;2023-04-27T09:40:58;99221.97;;;16.33;29.89
77171;BME280;66144;50.020;14.422;2023-04-27T09:43:24;99221.81;;;16.14;28.75
77171;BME280;66144;50.020;14.422;2023-04-27T09:45:52;99222.03;;;16.18;28.82
77171;BME280;66144;50.020;14.422;2023-04-27T09:48:20;99219.00;;;15.85;28.82
77171;BME280;66144;50.020;14.422;2023-04-27T09:50:45;99214.88;;;15.64;29.40
77171;BME280;66144;50.020;14.422;2023-04-27T09:53:14;99219.63;;;15.47;29.90
77171;BME280;66144;50.020;14.422;2023-04-27T09:55:54;99215.47;;;15.15;29.59
77171;BME280;66144;50.020;14.422;2023-04-27T10:06:41;99204.38;;;15.39;29.84
77171;BME280;66144;50.020;14.422;2023-04-27T10:09:09;99208.38;;;14.96;28.88
77171;BME280;66144;50.020;14.422;2023-04-27T10:11:41;99205.44;;;15.33;29.25
77171;BME280;66144;50.020;14.422;2023-04-27T10:14:16;99208.06;;;15.33;28.39
77171;BME280;66144;50.020;14.422;2023-04-27T10:16:45;99198.00;;;15.65;31.50
77171;BME280;66144;50.020;14.422;2023-04-27T10:19:12;99200.84;;;15.79;29.59
77171;BME280;66144;50.020;14.422;2023-04-27T10:21:50;99192.22;;;15.53;29.36
77171;BME280;66144;50.020;14.422;2023-04-27T10:24:15;99203.84;;;15.37;29.25
77171;BME280;66144;50.020;14.422;2023-04-27T10:26:48;99197.50;;;15.43;30.62
77171;BME280;66144;50.020;14.422;2023-04-27T10:29:14;99199.41;;;14.97;29.17
77171;BME280;66144;50.020;14.422;2023-04-27T10:31:46;99185.97;;;15.03;28.61
77171;BME280;66144;50.020;14.422;2023-04-27T10:34:16;99187.84;;;15.18;28.26
77171;BME280;66144;50.020;14.422;2023-04-27T10:36:42;99197.28;;;15.34;29.60
77171;BME280;66144;50.020;14.422;2023-04-27T10:39:20;99203.22;;;15.80;30.48
77171;BME280;66144;50.020;14.422;2023-04-27T10:41:54;99190.56;;;15.93;28.70
77171;BME280;66144;50.020;14.422;2023-04-27T10:44:28;99192.41;;;15.82;28.71
77171;BME280;66144;50.020;14.422;2023-04-27T10:46:58;99194.72;;;15.99;28.37
77171;BME280;66144;50.020;14.422;2023-04-27T10:49:29;99183.84;;;16.15;27.69
77171;BME280;66144;50.020;14.422;2023-04-27T10:51:59;99176.31;;;16.38;27.24
77171;BME280;66144;50.020;14.422;2023-04-27T10:54:27;99174.31;;;16.69;30.24
77171;BME280;66144;50.020;14.422;2023-04-27T10:56:54;99174.66;;;16.91;27.96
77171;BME280;66144;50.020;14.422;2023-04-27T10:59:26;99180.50;;;17.41;31.03
77171;BME280;66144;50.020;14.422;2023-04-27T11:01:51;99177.34;;;17.39;26.85
77171;BME280;66144;50.020;14.422;2023-04-27T11:04:16;99173.72;;;17.82;28.36
77171;BME280;66144;50.020;14.422;2023-04-27T11:06:43;99180.09;;;17.52;28.36
77171;BME280;66144;50.020;14.422;2023-04-27T11:09:13;99166.47;;;17.45;28.36
77171;BME280;66144;50.020;14.422;2023-04-27T11:11:43;99173.69;;;17.87;28.47
77171;BME280;66144;50.020;14.422;2023-04-27T11:14:13;99181.13;;;18.04;26.71
77171;BME280;66144;50.020;14.422;2023-04-27T11:16:45;99177.03;;;17.93;27.34
77171;BME280;66144;50.020;14.422;2023-04-27T11:19:10;99181.72;;;17.77;26.83
77171;BME280;66144;50.020;14.422;2023-04-27T11:21:36;99180.91;;;17.53;27.26
77171;BME280;66144;50.020;14.422;2023-04-27T11:24:05;99180.91;;;17.53;27.75
77171;BME280;66144;50.020;14.422;2023-04-27T11:26:31;99181.63;;;17.35;27.01
77171;BME280;66144;50.020;14.422;2023-04-27T11:31:23;99172.25;;;17.23;27.72
77171;BME280;66144;50.020;14.422;2023-04-27T11:33:49;99170.72;;;17.17;28.04
77171;BME280;66144;50.020;14.422;2023-04-27T11:36:19;99174.97;;;17.13;29.44
77171;BME280;66144;50.020;14.422;2023-04-27T11:38:45;99167.25;;;16.93;28.56
77171;BME280;66144;50.020;14.422;2023-04-27T11:41:11;99176.97;;;16.98;28.44
77171;BME280;66144;50.020;14.422;2023-04-27T11:43:40;99166.84;;;16.76;27.64
77171;BME280;66144;50.020;14.422;2023-04-27T11:46:07;99174.28;;;16.74;27.51
77171;BME280;66144;50.020;14.422;2023-04-27T11:48:38;99179.31;;;16.70;28.99
77171;BME280;66144;50.020;14.422;2023-04-27T11:51:04;99175.63;;;16.61;28.36
77171;BME280;66144;50.020;14.422;2023-04-27T11:53:32;99166.13;;;16.26;28.47
77171;BME280;66144;50.020;14.422;2023-04-27T11:56:02;99168.97;;;15.80;28.88
77171;BME280;66144;50.020;14.422;2023-04-27T11:58:36;99178.63;;;16.00;28.61
77171;BME280;66144;50.020;14.422;2023-04-27T12:01:06;99176.53;;;16.02;30.18
77171;BME280;66144;50.020;14.422;2023-04-27T12:03:31;99172.81;;;16.08;28.98
77171;BME280;66144;50.020;14.422;2023-04-27T12:05:57;99173.72;;;15.78;29.17
77171;BME280;66144;50.020;14.422;2023-04-27T12:08:23;99174.84;;;15.62;29.05
77171;BME280;66144;50.020;14.422;2023-04-27T12:10:48;99170.41;;;15.42;29.45
77171;BME280;66144;50.020;14.422;2023-04-27T12:13:15;99179.28;;;15.77;29.95
77171;BME280;66144;50.020;14.422;2023-04-27T12:15:41;99170.81;;;15.80;28.47
77171;BME280;66144;50.020;14.422;2023-04-27T12:18:06;99168.38;;;15.99;29.35
77171;BME280;66144;50.020;14.422;2023-04-27T12:20:33;99166.75;;;16.08;28.51
77171;BME280;66144;50.020;14.422;2023-04-27T12:22:59;99172.47;;;16.20;31.75
77171;BME280;66144;50.020;14.422;2023-04-27T12:25:24;99164.44;;;16.40;28.19
77171;BME280;66144;50.020;14.422;2023-04-27T12:27:50;99170.38;;;16.17;28.03
77171;BME280;66144;50.020;14.422;2023-04-27T12:30:16;99177.28;;;16.08;28.67
77171;BME280;66144;50.020;14.422;2023-04-27T12:32:42;99171.16;;;16.17;27.67
77171;BME280;66144;50.020;14.422;2023-04-27T12:35:07;99173.53;;;16.19;29.07
77171;BME280;66144;50.020;14.422;2023-04-27T12:37:33;99172.44;;;16.30;29.04
77171;BME280;66144;50.020;14.422;2023-04-27T12:39:59;99163.97;;;16.33;28.19
77171;BME280;66144;50.020;14.422;2023-04-27T12:42:24;99166.41;;;16.24;27.83
77171;BME280;66144;50.020;14.422;2023-04-27T12:44:51;99158.22;;;16.26;27.74
77171;BME280;66144;50.020;14.422;2023-04-27T12:47:17;99164.03;;;16.23;28.38
77171;BME280;66144;50.020;14.422;2023-04-27T12:49:42;99165.34;;;16.26;28.60
77171;BME280;66144;50.020;14.422;2023-04-27T12:52:07;99170.91;;;15.60;27.92
77171;BME280;66144;50.020;14.422;2023-04-27T12:54:33;99166.97;;;15.52;28.89
77171;BME280;66144;50.020;14.422;2023-04-27T12:56:59;99160.38;;;15.54;29.42
77171;BME280;66144;50.020;14.422;2023-04-27T12:59:27;99157.91;;;15.88;30.67
77171;BME280;66144;50.020;14.422;2023-04-27T13:01:54;99159.41;;;16.00;30.04